SAS1257 EKCH-EKAH
Flight info
| Callsign | SAS1257 |
|---|---|
| Flight time | 0h 22m |
| Altitude | 14000 |
| Route | GOLGA DCT GODOG |
| Aircraft | A319/M-SDE3FGHIRWY/LB1 |
Departure
| Time | 2026-05-09 14:06 |
|---|---|
| Airport | Copenhagen Kastrup Airport (EKCH) |
Arrival
| Time | 2026-05-09 14:28 |
|---|---|
| Airport | Aarhus Airport (EKAH) |
| Time | Latitude | Longitude | Altitude | Speed | Heading |
|---|---|---|---|---|---|
| 2026-05-09 13:31 | 55.62712 | 12.64468 | 24 ft | 0 kts | 102° |
| 2026-05-09 13:58 | 55.62714 | 12.64453 | 51 ft | 4 kts | 101° |
| 2026-05-09 13:58 | 55.62719 | 12.64407 | 20 ft | 4 kts | 94° |
| 2026-05-09 13:59 | 55.62717 | 12.64361 | 26 ft | 4 kts | 54° |
| 2026-05-09 13:59 | 55.62699 | 12.64337 | 29 ft | 4 kts | 28° |
| 2026-05-09 13:59 | 55.62675 | 12.64315 | 24 ft | 4 kts | 25° |
| 2026-05-09 13:59 | 55.62651 | 12.64296 | 26 ft | 4 kts | 23° |
| 2026-05-09 14:00 | 55.62626 | 12.64277 | 28 ft | 4 kts | 26° |
| 2026-05-09 14:00 | 55.62618 | 12.64270 | 27 ft | 4 kts | 31° |
| 2026-05-09 14:00 | 55.62602 | 12.64212 | 28 ft | 4 kts | 106° |
| 2026-05-09 14:00 | 55.62613 | 12.64168 | 25 ft | 4 kts | 123° |
| 2026-05-09 14:01 | 55.62617 | 12.64157 | 24 ft | 0 kts | 123° |
| 2026-05-09 14:02 | 55.62613 | 12.64169 | 25 ft | 4 kts | 123° |
| 2026-05-09 14:03 | 55.62586 | 12.64240 | 28 ft | 10 kts | 123° |
| 2026-05-09 14:03 | 55.62535 | 12.64379 | 25 ft | 17 kts | 122° |
| 2026-05-09 14:03 | 55.62472 | 12.64484 | 24 ft | 11 kts | 179° |
| 2026-05-09 14:03 | 55.62376 | 12.64441 | 24 ft | 18 kts | 195° |
| 2026-05-09 14:04 | 55.62250 | 12.64379 | 22 ft | 21 kts | 196° |
| 2026-05-09 14:04 | 55.62098 | 12.64259 | 24 ft | 26 kts | 206° |
| 2026-05-09 14:04 | 55.61924 | 12.64114 | 24 ft | 26 kts | 206° |
| 2026-05-09 14:04 | 55.61759 | 12.64081 | 24 ft | 25 kts | 176° |
| 2026-05-09 14:05 | 55.61639 | 12.64081 | 27 ft | 16 kts | 201° |
| 2026-05-09 14:05 | 55.61503 | 12.63879 | 29 ft | 51 kts | 221° |
| 2026-05-09 14:05 | 55.61048 | 12.63177 | 27 ft | 122 kts | 221° |
| 2026-05-09 14:05 | 55.60283 | 12.61998 | 318 ft | 154 kts | 219° |
| 2026-05-09 14:06 | 55.59486 | 12.60763 | 1211 ft | 152 kts | 218° |
| 2026-05-09 14:06 | 55.58682 | 12.59521 | 1988 ft | 160 kts | 217° |
| 2026-05-09 14:06 | 55.57786 | 12.58151 | 2557 ft | 181 kts | 217° |
| 2026-05-09 14:06 | 55.56762 | 12.56583 | 3026 ft | 208 kts | 219° |
| 2026-05-09 14:07 | 55.55924 | 12.54309 | 3648 ft | 242 kts | 254° |
| 2026-05-09 14:07 | 55.55847 | 12.51192 | 4433 ft | 265 kts | 275° |
| 2026-05-09 14:07 | 55.56146 | 12.47931 | 5624 ft | 271 kts | 280° |
| 2026-05-09 14:07 | 55.56542 | 12.44690 | 6819 ft | 276 kts | 281° |
| 2026-05-09 14:08 | 55.56829 | 12.42445 | 7578 ft | 279 kts | 283° |
| 2026-05-09 14:08 | 55.57967 | 12.38303 | 9055 ft | 287 kts | 299° |
| 2026-05-09 14:08 | 55.58984 | 12.35234 | 10182 ft | 291 kts | 299° |
| 2026-05-09 14:08 | 55.60041 | 12.32061 | 10892 ft | 311 kts | 299° |
| 2026-05-09 14:09 | 55.61179 | 12.28632 | 11346 ft | 335 kts | 299° |
| 2026-05-09 14:09 | 55.61970 | 12.26246 | 11775 ft | 343 kts | 299° |
| 2026-05-09 14:09 | 55.63602 | 12.21324 | 12990 ft | 349 kts | 299° |
| 2026-05-09 14:09 | 55.64415 | 12.18866 | 13613 ft | 350 kts | 299° |
| 2026-05-09 14:10 | 55.67279 | 12.10153 | 14227 ft | 352 kts | 299° |
| 2026-05-09 14:10 | 55.68508 | 12.06395 | 14247 ft | 352 kts | 299° |
| 2026-05-09 14:10 | 55.69740 | 12.02627 | 14247 ft | 361 kts | 299° |
| 2026-05-09 14:11 | 55.71036 | 11.98651 | 14247 ft | 381 kts | 299° |
| 2026-05-09 14:11 | 55.71919 | 11.95938 | 14247 ft | 384 kts | 298° |
| 2026-05-09 14:11 | 55.73256 | 11.91824 | 14239 ft | 386 kts | 298° |
| 2026-05-09 14:11 | 55.74598 | 11.87686 | 14239 ft | 387 kts | 298° |
| 2026-05-09 14:12 | 55.76376 | 11.82201 | 14236 ft | 387 kts | 298° |
| 2026-05-09 14:12 | 55.77718 | 11.78058 | 14234 ft | 387 kts | 298° |
| 2026-05-09 14:12 | 55.78627 | 11.75254 | 14231 ft | 387 kts | 299° |
| 2026-05-09 14:12 | 55.79956 | 11.71153 | 14228 ft | 388 kts | 298° |
| 2026-05-09 14:13 | 55.81300 | 11.66997 | 14231 ft | 388 kts | 298° |
| 2026-05-09 14:14 | 55.90645 | 11.37786 | 14233 ft | 389 kts | 298° |
| 2026-05-09 14:15 | 55.91979 | 11.33588 | 14234 ft | 389 kts | 298° |
| 2026-05-09 14:15 | 55.93312 | 11.29382 | 14233 ft | 389 kts | 298° |
| 2026-05-09 14:15 | 55.94643 | 11.25179 | 14235 ft | 389 kts | 298° |
| 2026-05-09 14:15 | 55.95972 | 11.20979 | 14238 ft | 389 kts | 298° |
| 2026-05-09 14:16 | 55.97301 | 11.16771 | 14237 ft | 389 kts | 298° |
| 2026-05-09 14:16 | 55.98627 | 11.12568 | 14240 ft | 389 kts | 298° |
| 2026-05-09 14:16 | 55.99943 | 11.08393 | 14121 ft | 378 kts | 298° |
| 2026-05-09 14:16 | 56.01198 | 11.04414 | 13861 ft | 369 kts | 298° |
| 2026-05-09 14:17 | 56.02011 | 11.01824 | 13684 ft | 367 kts | 297° |
| 2026-05-09 14:17 | 56.03250 | 10.97860 | 13055 ft | 362 kts | 297° |
| 2026-05-09 14:17 | 56.04469 | 10.93952 | 12379 ft | 357 kts | 297° |
| 2026-05-09 14:17 | 56.05667 | 10.90101 | 11711 ft | 352 kts | 297° |
| 2026-05-09 14:18 | 56.06851 | 10.86286 | 11078 ft | 348 kts | 297° |
| 2026-05-09 14:18 | 56.08001 | 10.82587 | 10901 ft | 331 kts | 297° |
| 2026-05-09 14:18 | 56.09093 | 10.79079 | 10781 ft | 315 kts | 297° |
| 2026-05-09 14:18 | 56.10122 | 10.75774 | 10659 ft | 301 kts | 297° |
| 2026-05-09 14:19 | 56.11131 | 10.72531 | 10410 ft | 294 kts | 297° |
| 2026-05-09 14:19 | 56.12116 | 10.69342 | 10283 ft | 292 kts | 296° |
| 2026-05-09 14:19 | 56.13094 | 10.66158 | 10157 ft | 291 kts | 296° |
| 2026-05-09 14:19 | 56.14070 | 10.62974 | 10024 ft | 291 kts | 296° |
| 2026-05-09 14:20 | 56.15049 | 10.59784 | 9572 ft | 296 kts | 296° |
| 2026-05-09 14:20 | 56.16040 | 10.56561 | 9203 ft | 292 kts | 297° |
| 2026-05-09 14:20 | 56.17006 | 10.53416 | 8806 ft | 290 kts | 297° |
| 2026-05-09 14:21 | 56.18940 | 10.47107 | 8057 ft | 288 kts | 297° |
| 2026-05-09 14:21 | 56.19903 | 10.43959 | 7692 ft | 286 kts | 297° |
| 2026-05-09 14:21 | 56.20854 | 10.40847 | 7301 ft | 283 kts | 297° |
| 2026-05-09 14:21 | 56.21794 | 10.37766 | 6693 ft | 281 kts | 297° |
| 2026-05-09 14:22 | 56.22731 | 10.34693 | 6050 ft | 279 kts | 297° |
| 2026-05-09 14:22 | 56.23657 | 10.31649 | 5443 ft | 277 kts | 297° |
| 2026-05-09 14:22 | 56.24584 | 10.28689 | 4856 ft | 275 kts | 302° |
| 2026-05-09 14:22 | 56.25999 | 10.26437 | 4351 ft | 273 kts | 334° |
| 2026-05-09 14:23 | 56.27814 | 10.25770 | 4002 ft | 264 kts | 5° |
| 2026-05-09 14:23 | 56.29514 | 10.26711 | 3668 ft | 252 kts | 31° |
| 2026-05-09 14:23 | 56.31010 | 10.28267 | 3321 ft | 244 kts | 32° |
| 2026-05-09 14:23 | 56.32342 | 10.29997 | 3065 ft | 230 kts | 52° |
| 2026-05-09 14:24 | 56.33035 | 10.32508 | 2872 ft | 220 kts | 82° |
| 2026-05-09 14:24 | 56.32992 | 10.35191 | 2631 ft | 212 kts | 103° |
| 2026-05-09 14:24 | 56.32732 | 10.37778 | 2382 ft | 206 kts | 103° |
| 2026-05-09 14:24 | 56.32491 | 10.40221 | 2137 ft | 195 kts | 103° |
| 2026-05-09 14:25 | 56.32261 | 10.42551 | 1926 ft | 182 kts | 103° |
| 2026-05-09 14:25 | 56.32050 | 10.44706 | 1740 ft | 169 kts | 103° |
| 2026-05-09 14:25 | 56.31855 | 10.46720 | 1540 ft | 158 kts | 103° |
| 2026-05-09 14:25 | 56.31677 | 10.48529 | 1328 ft | 138 kts | 103° |
| 2026-05-09 14:26 | 56.31516 | 10.50144 | 1129 ft | 125 kts | 103° |
| 2026-05-09 14:26 | 56.31371 | 10.51630 | 947 ft | 116 kts | 103° |
| 2026-05-09 14:26 | 56.31231 | 10.53044 | 805 ft | 116 kts | 102° |
| 2026-05-09 14:26 | 56.31080 | 10.54473 | 735 ft | 116 kts | 103° |
| 2026-05-09 14:27 | 56.30943 | 10.55896 | 587 ft | 115 kts | 104° |
| 2026-05-09 14:27 | 56.30798 | 10.57317 | 387 ft | 115 kts | 104° |
| 2026-05-09 14:27 | 56.30653 | 10.58743 | 224 ft | 117 kts | 103° |
| 2026-05-09 14:27 | 56.30511 | 10.60167 | 94 ft | 111 kts | 102° |
| 2026-05-09 14:28 | 56.30398 | 10.61286 | 91 ft | 67 kts | 100° |
| 2026-05-09 14:28 | 56.30335 | 10.61906 | 89 ft | 48 kts | 100° |
| 2026-05-09 14:28 | 56.30277 | 10.62490 | 90 ft | 43 kts | 101° |
| 2026-05-09 14:28 | 56.30243 | 10.62816 | 89 ft | 6 kts | 99° |
| 2026-05-09 14:29 | 56.30266 | 10.62906 | 88 ft | 11 kts | 26° |
| 2026-05-09 14:29 | 56.30352 | 10.62938 | 89 ft | 14 kts | 10° |
| 2026-05-09 14:29 | 56.30465 | 10.62974 | 89 ft | 19 kts | 10° |
| 2026-05-09 14:29 | 56.30588 | 10.63012 | 89 ft | 14 kts | 0° |